Time;durP1;ratioP1;P1;durP2;ratioP2;P2;SDS_P1;SDS_P2;PMS_P1;PMS_P2;Temp;Humidity;BMP_temperature;BMP_pressure;BME280_temperature;BME280_humidity;BME280_pressure;Samples;Min_cycle;Max_cycle;Signal;HPM_P1;HPM_P2
2021/05/19 00:00:48;;;;;;;4.20;3.40;;;11.40;78.40;;;;;;5089654;28;20491;-79
2021/05/19 00:03:14;;;;;;;8.43;3.28;;;11.40;78.50;;;;;;5073573;28;20072;-79
2021/05/19 00:05:40;;;;;;;5.38;3.92;;;11.40;78.70;;;;;;5074122;28;20033;-79
2021/05/19 00:08:09;;;;;;;6.70;3.42;;;11.40;79.00;;;;;;5093455;28;20027;-79
2021/05/19 00:10:36;;;;;;;4.75;3.28;;;11.40;79.20;;;;;;5094064;28;20556;-79
2021/05/19 00:13:02;;;;;;;4.75;3.47;;;11.40;79.10;;;;;;5094199;28;20393;-79
2021/05/19 00:15:28;;;;;;;4.43;3.40;;;11.40;78.90;;;;;;5094086;28;20081;-79
2021/05/19 00:17:53;;;;;;;7.03;3.47;;;11.40;78.80;;;;;;5093758;28;20024;-79
2021/05/19 00:20:20;;;;;;;4.45;3.47;;;11.40;78.70;;;;;;5075553;28;20024;-80
2021/05/19 00:22:46;;;;;;;6.40;3.90;;;11.30;78.50;;;;;;5093530;28;20115;-79
2021/05/19 00:25:12;;;;;;;6.70;3.60;;;11.30;78.50;;;;;;5094079;28;20063;-79
2021/05/19 00:27:38;;;;;;;4.53;4.03;;;11.20;78.40;;;;;;5093444;28;20024;-79
2021/05/19 00:30:06;;;;;;;5.70;3.60;;;11.10;78.40;;;;;;5065959;28;20119;-79
2021/05/19 00:32:31;;;;;;;7.80;4.10;;;11.10;78.50;;;;;;5086103;28;20020;-79
2021/05/19 00:34:57;;;;;;;5.45;3.85;;;11.10;78.70;;;;;;5073849;28;20032;-79
2021/05/19 00:37:22;;;;;;;6.45;4.22;;;11.00;78.70;;;;;;5067561;28;20035;-79
2021/05/19 00:39:48;;;;;;;4.07;3.67;;;11.00;78.90;;;;;;5090697;28;20032;-79
2021/05/19 00:42:15;;;;;;;4.68;3.50;;;11.00;79.00;;;;;;5064872;28;20036;-79
2021/05/19 00:44:41;;;;;;;5.75;4.15;;;10.90;79.80;;;;;;5093424;28;20016;-79
2021/05/19 00:47:07;;;;;;;7.43;4.07;;;10.90;79.20;;;;;;5075531;28;20532;-79
2021/05/19 00:49:33;;;;;;;4.82;3.85;;;10.90;79.10;;;;;;5093315;28;20020;-79
2021/05/19 00:51:59;;;;;;;5.95;3.67;;;10.90;79.20;;;;;;5075276;28;20056;-79
2021/05/19 00:54:25;;;;;;;9.05;3.70;;;10.80;79.20;;;;;;5091613;28;20035;-79
2021/05/19 00:56:52;;;;;;;7.20;4.20;;;10.80;79.30;;;;;;5075284;28;20442;-79
2021/05/19 00:59:18;;;;;;;9.55;4.10;;;10.80;79.50;;;;;;5091418;28;20043;-79
2021/05/19 01:01:46;;;;;;;4.82;4.30;;;10.70;79.60;;;;;;5088496;28;20085;-79
2021/05/19 01:04:12;;;;;;;5.28;3.70;;;10.70;79.70;;;;;;5066240;28;20036;-79
2021/05/19 01:11:49;;;;;;;5.13;4.10;;;10.60;79.60;;;;;;5093793;28;20043;-79
2021/05/19 01:14:14;;;;;;;5.78;3.90;;;10.50;79.70;;;;;;5093140;28;20457;-79
2021/05/19 01:16:40;;;;;;;4.32;3.70;;;10.60;79.70;;;;;;5084053;28;20035;-78
2021/05/19 01:19:06;;;;;;;5.45;3.78;;;10.50;79.40;;;;;;5055507;28;20037;-79
2021/05/19 01:21:33;;;;;;;8.68;4.15;;;10.50;79.30;;;;;;5070786;28;20388;-79
2021/05/19 01:23:59;;;;;;;6.35;3.80;;;10.40;79.20;;;;;;5079375;28;20035;-79
2021/05/19 01:26:25;;;;;;;5.25;3.80;;;10.30;79.20;;;;;;5078968;28;20028;-79
2021/05/19 01:28:51;;;;;;;7.35;3.85;;;10.30;79.50;;;;;;5096991;28;20024;-79
2021/05/19 01:31:17;;;;;;;4.57;4.10;;;10.30;79.50;;;;;;5097003;28;20026;-79
2021/05/19 01:33:42;;;;;;;6.50;4.22;;;10.20;79.40;;;;;;5079029;28;20480;-79
2021/05/19 01:36:08;;;;;;;5.95;3.80;;;10.20;79.50;;;;;;5060910;28;20036;-79
2021/05/19 01:38:35;;;;;;;5.53;4.35;;;10.20;79.60;;;;;;5082436;28;20469;-78
2021/05/19 01:41:01;;;;;;;6.22;4.00;;;10.20;79.70;;;;;;5096900;28;20024;-79
2021/05/19 01:43:34;;;;;;;6.43;4.43;;;10.10;79.70;;;;;;5078755;28;20397;-79
2021/05/19 01:46:01;;;;;;;5.00;3.88;;;10.10;80.00;;;;;;5071490;28;20033;-79
2021/05/19 01:48:30;;;;;;;8.75;4.40;;;10.10;80.10;;;;;;5076555;28;20020;-78
2021/05/19 01:50:56;;;;;;;6.93;4.80;;;10.00;80.30;;;;;;5076547;28;20017;-78
2021/05/19 01:53:23;;;;;;;5.22;4.40;;;10.00;80.40;;;;;;5076678;28;20031;-79
2021/05/19 01:55:49;;;;;;;4.97;3.60;;;9.90;80.60;;;;;;5067294;28;20027;-79
2021/05/19 01:58:15;;;;;;;6.63;4.57;;;9.90;80.70;;;;;;5078279;28;20020;-78
2021/05/19 02:00:40;;;;;;;7.50;4.05;;;9.90;80.90;;;;;;5058487;28;20090;-79
2021/05/19 02:03:07;;;;;;;6.25;4.53;;;9.90;81.10;;;;;;5076333;28;20127;-79
2021/05/19 02:05:35;;;;;;;5.07;3.97;;;9.90;81.30;;;;;;5096251;28;20498;-78
2021/05/19 02:08:03;;;;;;;6.70;4.30;;;9.80;81.30;;;;;;5061876;28;20032;-78
2021/05/19 02:10:29;;;;;;;7.50;4.13;;;9.80;81.30;;;;;;5096116;28;20036;-78
2021/05/19 02:12:58;;;;;;;10.98;4.20;;;9.80;81.40;;;;;;5096342;28;20078;-79
2021/05/19 02:15:24;;;;;;;4.60;3.95;;;9.80;82.20;;;;;;5096213;28;20056;-78
2021/05/19 02:17:50;;;;;;;4.80;4.03;;;9.80;81.50;;;;;;5096355;28;20492;-79
2021/05/19 02:20:19;;;;;;;3.92;3.63;;;9.80;81.40;;;;;;5096203;28;20043;-78
2021/05/19 02:22:45;;;;;;;10.05;4.50;;;9.80;81.40;;;;;;5096143;28;20104;-79
2021/05/19 02:25:12;;;;;;;6.80;4.78;;;9.80;81.30;;;;;;5078746;28;20056;-78
2021/05/19 02:27:38;;;;;;;9.77;4.38;;;9.80;81.40;;;;;;5074297;28;20059;-78
2021/05/19 02:30:05;;;;;;;7.25;4.00;;;9.70;81.50;;;;;;5077784;28;20338;-79
2021/05/19 02:32:31;;;;;;;6.75;4.65;;;9.70;81.60;;;;;;5057949;28;20032;-79
2021/05/19 02:34:57;;;;;;;5.30;4.00;;;9.70;81.60;;;;;;5093283;28;20036;-79
2021/05/19 02:37:23;;;;;;;4.53;4.03;;;9.60;81.60;;;;;;5077974;28;20035;-79
2021/05/19 02:39:49;;;;;;;5.72;3.97;;;9.60;81.80;;;;;;5077793;28;20517;-79
2021/05/19 02:42:15;;;;;;;5.82;4.30;;;9.60;81.90;;;;;;5057663;28;20527;-79
2021/05/19 02:44:40;;;;;;;5.18;4.60;;;9.60;82.00;;;;;;5077091;28;20034;-78
2021/05/19 02:47:06;;;;;;;5.45;4.30;;;9.60;82.10;;;;;;5095939;28;20020;-79
2021/05/19 02:49:32;;;;;;;5.88;4.40;;;9.60;82.20;;;;;;5058378;28;20440;-79
2021/05/19 02:51:58;;;;;;;5.90;4.50;;;9.60;82.30;;;;;;5090621;28;20030;-78
2021/05/19 02:54:24;;;;;;;6.25;4.32;;;9.60;82.40;;;;;;5083333;28;20064;-78
2021/05/19 02:56:49;;;;;;;5.13;4.68;;;9.60;82.40;;;;;;5075170;28;20028;-78
2021/05/19 02:59:15;;;;;;;6.15;4.90;;;9.60;82.50;;;;;;5075175;28;20029;-78
2021/05/19 03:01:42;;;;;;;6.10;5.47;;;9.60;82.60;;;;;;5075197;28;20020;-78
2021/05/19 03:04:08;;;;;;;5.75;5.25;;;9.50;82.60;;;;;;5089692;28;20051;-78
2021/05/19 03:06:34;;;;;;;6.72;6.03;;;9.60;82.80;;;;;;5095166;28;20032;-79
2021/05/19 03:09:00;;;;;;;5.97;4.93;;;9.60;82.90;;;;;;5077605;28;20043;-78
2021/05/19 03:11:26;;;;;;;6.32;5.72;;;9.60;83.10;;;;;;5093873;28;20028;-78
2021/05/19 03:13:52;;;;;;;7.72;5.97;;;9.60;83.20;;;;;;5095205;28;20103;-78
2021/05/19 03:16:18;;;;;;;6.78;6.07;;;9.50;83.30;;;;;;5095055;28;20051;-78
2021/05/19 03:18:45;;;;;;;9.70;6.85;;;9.60;83.30;;;;;;5076834;28;20035;-78
2021/05/19 03:21:11;;;;;;;8.35;7.45;;;9.60;83.30;;;;;;5095195;28;20358;-78
2021/05/19 03:23:37;;;;;;;7.72;6.80;;;9.60;83.50;;;;;;5094946;28;20028;-78
2021/05/19 03:26:03;;;;;;;9.13;7.55;;;9.60;83.60;;;;;;5095160;28;20076;-79
2021/05/19 03:28:28;;;;;;;7.38;6.57;;;9.60;83.70;;;;;;5059787;28;20480;-78
2021/05/19 03:30:54;;;;;;;8.38;7.60;;;9.60;83.90;;;;;;5094894;28;20030;-79
2021/05/19 03:33:20;;;;;;;8.65;7.75;;;9.60;83.90;;;;;;5094689;28;20078;-78
2021/05/19 03:35:47;;;;;;;8.98;7.30;;;9.60;84.00;;;;;;5076603;28;20384;-78
2021/05/19 03:38:13;;;;;;;7.97;7.13;;;9.60;84.00;;;;;;5094814;28;20032;-78
2021/05/19 03:40:39;;;;;;;9.60;8.60;;;9.70;84.20;;;;;;5094749;28;20032;-79
2021/05/19 03:43:05;;;;;;;9.23;8.32;;;9.70;84.40;;;;;;5072129;28;20401;-78
2021/05/19 03:45:31;;;;;;;9.95;7.20;;;9.70;84.70;;;;;;5093383;28;20072;-78
2021/05/19 03:47:56;;;;;;;9.20;8.30;;;9.70;84.70;;;;;;5076364;28;20119;-78
2021/05/19 03:50:25;;;;;;;11.82;10.27;;;9.80;84.80;;;;;;5076627;28;20532;-78
2021/05/19 03:52:52;;;;;;;9.40;8.40;;;9.80;85.00;;;;;;5094536;28;20024;-78
2021/05/19 03:55:18;;;;;;;8.90;7.65;;;9.80;85.10;;;;;;5094679;28;20060;-78
2021/05/19 03:57:44;;;;;;;9.07;8.07;;;9.80;85.20;;;;;;5094382;28;20085;-79
2021/05/19 04:00:15;;;;;;;8.95;8.02;;;9.80;85.20;;;;;;5078615;28;20483;-79
2021/05/19 04:02:40;;;;;;;10.13;8.98;;;9.80;85.30;;;;;;5092776;28;20077;-78
2021/05/19 04:05:07;;;;;;;9.82;8.90;;;9.80;85.20;;;;;;5067131;28;20040;-78
2021/05/19 04:07:33;;;;;;;10.50;9.38;;;9.80;85.30;;;;;;5094195;28;20032;-79
2021/05/19 04:09:59;;;;;;;9.52;8.52;;;9.80;85.40;;;;;;5093986;28;20392;-78
2021/05/19 04:12:24;;;;;;;10.48;9.48;;;9.80;85.30;;;;;;5109963;28;20047;-78
2021/05/19 04:14:50;;;;;;;9.55;8.65;;;9.90;85.40;;;;;;5102094;28;20031;-78
2021/05/19 04:17:16;;;;;;;11.50;10.30;;;9.90;85.40;;;;;;5108636;28;20544;-78
2021/05/19 04:19:41;;;;;;;10.70;9.70;;;9.80;85.30;;;;;;5093945;28;20030;-78
2021/05/19 04:22:08;;;;;;;11.13;9.32;;;9.90;85.30;;;;;;5075678;28;20376;-78
2021/05/19 04:24:33;;;;;;;12.27;9.07;;;9.90;85.30;;;;;;5068612;28;20372;-78
2021/05/19 04:26:59;;;;;;;11.52;10.35;;;9.90;85.30;;;;;;5093630;28;20116;-78
2021/05/19 04:29:25;;;;;;;10.95;9.85;;;10.00;85.30;;;;;;5075179;28;20063;-78
2021/05/19 04:31:51;;;;;;;10.15;9.02;;;10.00;85.30;;;;;;5085891;28;20031;-78
2021/05/19 04:34:18;;;;;;;10.07;9.10;;;10.00;85.30;;;;;;5057298;28;20024;-78
2021/05/19 04:36:43;;;;;;;10.25;9.10;;;10.00;85.30;;;;;;5093443;28;20055;-78
2021/05/19 04:39:09;;;;;;;10.30;9.23;;;10.00;85.30;;;;;;5081209;28;20068;-78
2021/05/19 04:41:35;;;;;;;14.82;10.02;;;10.00;85.40;;;;;;5088848;28;20107;-78
2021/05/19 04:44:00;;;;;;;12.35;10.40;;;10.00;85.40;;;;;;5076378;28;20082;-78
2021/05/19 04:46:26;;;;;;;11.23;9.57;;;10.10;85.50;;;;;;5073416;28;20366;-79
2021/05/19 04:48:55;;;;;;;10.80;9.27;;;10.10;85.40;;;;;;5066626;28;20076;-78
2021/05/19 04:51:20;;;;;;;10.88;9.23;;;10.10;85.40;;;;;;5074890;28;20064;-78
2021/05/19 04:53:46;;;;;;;13.48;9.90;;;10.10;85.30;;;;;;5086621;28;20060;-79
2021/05/19 04:56:12;;;;;;;14.10;10.15;;;10.10;85.30;;;;;;5073194;28;20111;-78
2021/05/19 04:58:37;;;;;;;13.82;9.30;;;10.10;85.30;;;;;;5081226;28;20028;-78
2021/05/19 05:01:03;;;;;;;13.57;10.50;;;10.10;85.40;;;;;;5082123;28;20032;-78
2021/05/19 05:03:28;;;;;;;11.52;9.50;;;10.10;86.00;;;;;;5067569;28;20028;-78
2021/05/19 05:05:55;;;;;;;14.45;10.35;;;10.10;85.40;;;;;;5075019;28;20493;-78
2021/05/19 05:08:22;;;;;;;12.38;9.05;;;10.10;85.40;;;;;;5075113;28;20499;-78
2021/05/19 05:10:47;;;;;;;11.30;9.48;;;10.20;85.50;;;;;;5091623;28;20032;-78
2021/05/19 05:13:13;;;;;;;12.38;9.57;;;10.20;85.50;;;;;;5074759;28;20381;-78
2021/05/19 05:15:38;;;;;;;13.07;9.40;;;10.30;85.50;;;;;;5075020;28;20040;-78
2021/05/19 05:18:04;;;;;;;13.73;9.00;;;10.40;85.40;;;;;;5054920;28;20036;-78
2021/05/19 05:20:30;;;;;;;15.52;8.68;;;10.50;85.30;;;;;;5072855;28;20033;-79
2021/05/19 05:22:56;;;;;;;13.88;9.60;;;10.60;85.10;;;;;;5091932;28;20036;-78
2021/05/19 05:25:22;;;;;;;18.33;11.43;;;10.70;84.80;;;;;;5093117;28;20016;-78
2021/05/19 05:27:49;;;;;;;16.35;10.35;;;10.80;84.80;;;;;;5093078;28;20031;-78
2021/05/19 05:30:16;;;;;;;14.18;9.45;;;10.80;84.70;;;;;;5092465;28;20056;-79
2021/05/19 05:32:41;;;;;;;17.85;10.23;;;10.80;84.70;;;;;;5077620;28;20028;-78
2021/05/19 05:35:08;;;;;;;14.90;9.52;;;10.90;84.70;;;;;;5080020;28;20028;-78
2021/05/19 05:37:34;;;;;;;14.43;9.05;;;10.90;84.70;;;;;;5081243;28;20042;-78
2021/05/19 05:40:00;;;;;;;18.75;8.90;;;10.90;85.30;;;;;;5074646;28;20396;-78
2021/05/19 05:42:26;;;;;;;21.60;9.60;;;11.00;84.70;;;;;;5087412;28;20032;-79
2021/05/19 05:44:52;;;;;;;14.77;7.85;;;11.00;84.60;;;;;;5074764;28;20016;-79
2021/05/19 05:47:17;;;;;;;15.05;8.25;;;11.10;84.70;;;;;;5093072;28;20119;-79
2021/05/19 05:49:43;;;;;;;17.67;9.15;;;11.10;84.80;;;;;;5091098;28;20036;-80
2021/05/19 05:52:09;;;;;;;15.88;8.52;;;11.20;84.80;;;;;;5074577;28;20647;-80
2021/05/19 05:54:34;;;;;;;16.60;8.07;;;11.30;84.80;;;;;;5070593;28;20028;-80
2021/05/19 05:57:00;;;;;;;20.30;8.05;;;11.40;84.60;;;;;;5070650;28;20021;-80
2021/05/19 05:59:26;;;;;;;18.05;7.55;;;11.50;84.40;;;;;;5056610;28;20040;-75
2021/05/19 06:01:52;;;;;;;21.45;8.23;;;11.60;84.10;;;;;;5047496;28;20025;-75
2021/05/19 06:04:17;;;;;;;20.38;8.20;;;11.70;83.80;;;;;;5064668;28;20044;-75
2021/05/19 06:06:43;;;;;;;16.23;7.55;;;11.80;83.40;;;;;;5065682;28;20033;-76
2021/05/19 06:09:09;;;;;;;16.35;7.32;;;12.00;83.10;;;;;;5087560;28;20472;-76
2021/05/19 06:11:34;;;;;;;14.40;7.60;;;12.10;83.00;;;;;;5095199;28;20060;-75
2021/05/19 06:14:00;;;;;;;19.33;6.97;;;12.10;82.90;;;;;;5076335;28;20023;-74
2021/05/19 06:16:26;;;;;;;14.73;7.32;;;12.20;82.90;;;;;;5095005;28;20063;-75
2021/05/19 06:18:51;;;;;;;14.23;7.30;;;12.20;82.60;;;;;;5095696;28;20396;-75
2021/05/19 06:21:17;;;;;;;16.63;7.40;;;12.30;82.30;;;;;;5060328;28;20711;-75
2021/05/19 06:23:42;;;;;;;19.70;6.90;;;12.30;82.30;;;;;;5057079;28;20029;-75
2021/05/19 06:26:08;;;;;;;12.82;6.43;;;12.40;82.40;;;;;;5096698;28;20024;-75
2021/05/19 06:28:34;;;;;;;15.45;6.95;;;12.50;82.20;;;;;;5065489;28;20044;-75
2021/05/19 06:30:59;;;;;;;17.42;7.18;;;12.60;81.90;;;;;;5083789;28;20032;-75
2021/05/19 06:33:25;;;;;;;20.20;7.50;;;12.70;81.00;;;;;;5056939;28;20488;-75
2021/05/19 06:35:51;;;;;;;25.92;7.72;;;12.70;81.70;;;;;;5102688;28;20404;-75
2021/05/19 06:38:16;;;;;;;15.10;6.68;;;12.70;81.70;;;;;;5091226;28;20029;-75
2021/05/19 06:40:42;;;;;;;16.20;6.07;;;12.70;81.70;;;;;;5080460;28;20032;-75
2021/05/19 06:43:09;;;;;;;20.83;7.03;;;12.70;81.80;;;;;;5065431;28;20024;-75
2021/05/19 06:45:35;;;;;;;11.10;6.30;;;12.80;81.70;;;;;;5092079;28;20032;-75
2021/05/19 06:48:01;;;;;;;16.13;6.53;;;12.80;81.70;;;;;;5086591;28;20021;-75
2021/05/19 06:50:27;;;;;;;17.52;5.95;;;12.80;81.70;;;;;;5064092;28;20031;-75
2021/05/19 06:52:53;;;;;;;17.67;5.85;;;12.80;81.20;;;;;;5045017;28;20485;-75
2021/05/19 06:55:19;;;;;;;12.80;6.00;;;12.90;81.30;;;;;;5068616;28;20059;-75
2021/05/19 06:57:45;;;;;;;12.93;5.63;;;12.90;81.10;;;;;;5094376;28;20029;-75
2021/05/19 07:00:11;;;;;;;16.70;6.30;;;12.90;80.80;;;;;;5091285;28;20477;-75
2021/05/19 07:02:38;;;;;;;23.55;6.50;;;13.00;80.70;;;;;;5086836;28;20512;-75
2021/05/19 07:05:08;;;;;;;16.73;6.10;;;13.10;80.70;;;;;;5059736;28;20095;-75
2021/05/19 07:07:33;;;;;;;18.63;6.15;;;13.10;80.50;;;;;;5053662;28;20056;-75
2021/05/19 07:09:59;;;;;;;15.98;5.95;;;13.10;80.20;;;;;;5041973;28;20060;-75
2021/05/19 07:12:25;;;;;;;18.48;6.60;;;13.00;80.40;;;;;;5052568;28;20592;-75
2021/05/19 07:14:54;;;;;;;16.42;6.03;;;13.00;80.70;;;;;;5052321;28;20032;-75
2021/05/19 07:17:19;;;;;;;18.67;6.35;;;13.10;80.70;;;;;;5052674;28;20029;-75
2021/05/19 07:19:45;;;;;;;16.42;6.63;;;13.10;80.60;;;;;;5052263;28;20079;-76
2021/05/19 07:22:11;;;;;;;16.60;6.53;;;13.10;80.30;;;;;;5054281;28;20053;-75
2021/05/19 07:24:36;;;;;;;16.48;6.57;;;13.10;80.30;;;;;;5052533;28;20025;-80
2021/05/19 07:27:02;;;;;;;13.25;6.43;;;13.20;79.80;;;;;;5049909;28;20037;-80
2021/05/19 07:29:28;;;;;;;18.25;6.25;;;13.30;79.80;;;;;;5052297;28;20052;-80
2021/05/19 07:31:54;;;;;;;20.05;6.28;;;13.30;80.00;;;;;;5052694;28;20496;-79
2021/05/19 07:34:19;;;;;;;15.50;6.40;;;13.40;79.80;;;;;;5043859;28;20021;-80
2021/05/19 07:36:45;;;;;;;15.27;6.53;;;13.40;79.50;;;;;;5034352;28;20026;-80
2021/05/19 07:39:13;;;;;;;15.65;6.18;;;13.50;79.10;;;;;;5035732;28;20029;-80
2021/05/19 07:41:39;;;;;;;14.02;6.05;;;13.60;78.90;;;;;;5046172;28;20036;-80
2021/05/19 07:44:05;;;;;;;16.80;5.93;;;13.60;78.80;;;;;;5052644;28;20033;-79
2021/05/19 07:46:31;;;;;;;13.98;5.43;;;13.70;78.60;;;;;;5048251;28;20026;-80
2021/05/19 07:48:56;;;;;;;14.68;5.72;;;13.80;78.70;;;;;;5053682;28;20389;-80
2021/05/19 07:51:22;;;;;;;14.63;4.28;;;13.90;78.40;;;;;;5053412;28;20723;-80
2021/05/19 07:53:48;;;;;;;17.83;5.03;;;13.90;78.20;;;;;;5046653;28;20132;-80
2021/05/19 07:56:22;;;;;;;17.00;4.13;;;14.00;78.00;;;;;;5034077;28;20098;-80
2021/05/19 07:58:56;;;;;;;15.63;4.22;;;14.10;77.60;;;;;;5034148;28;20036;-79
2021/05/19 08:01:28;;;;;;;16.38;4.18;;;14.20;77.30;;;;;;5044006;28;20029;-81
2021/05/19 08:03:53;;;;;;;16.30;4.47;;;14.20;76.90;;;;;;5036264;28;20033;-80
2021/05/19 08:06:20;;;;;;;10.13;3.50;;;14.20;76.80;;;;;;5072084;28;20504;-79
2021/05/19 08:08:46;;;;;;;14.45;4.55;;;14.20;76.80;;;;;;5095967;28;20546;-79
2021/05/19 08:11:15;;;;;;;14.00;4.82;;;14.20;76.80;;;;;;5093795;28;20107;-79
2021/05/19 08:13:41;;;;;;;15.88;4.45;;;14.20;76.80;;;;;;5075393;28;20090;-79
2021/05/19 08:16:07;;;;;;;15.30;5.15;;;14.30;76.70;;;;;;5084003;28;20477;-79
2021/05/19 08:18:34;;;;;;;12.23;4.78;;;14.30;76.20;;;;;;5080205;28;20024;-78
2021/05/19 08:20:59;;;;;;;13.13;4.60;;;14.40;75.50;;;;;;5095328;28;20028;-78
2021/05/19 08:23:25;;;;;;;13.20;4.90;;;14.40;75.40;;;;;;5074749;28;20119;-77
2021/05/19 08:25:51;;;;;;;10.80;4.70;;;14.50;75.20;;;;;;5061751;28;20028;-77
2021/05/19 08:28:17;;;;;;;9.55;4.88;;;14.50;75.10;;;;;;5094320;28;20032;-75
2021/05/19 08:30:42;;;;;;;10.13;4.55;;;14.60;74.80;;;;;;5071906;28;20366;-72
2021/05/19 08:33:08;;;;;;;11.10;4.65;;;14.70;74.50;;;;;;5075067;28;20031;-72
2021/05/19 08:35:33;;;;;;;12.02;4.97;;;14.70;75.10;;;;;;5064598;28;20484;-72
2021/05/19 08:37:59;;;;;;;12.20;5.00;;;14.70;74.50;;;;;;5091473;28;20039;-72
2021/05/19 08:40:27;;;;;;;10.88;5.32;;;14.70;74.40;;;;;;5052172;28;20047;-73
2021/05/19 08:42:53;;;;;;;13.85;5.40;;;14.80;74.50;;;;;;5090626;28;20032;-74
2021/05/19 08:45:19;;;;;;;14.93;5.35;;;14.90;74.50;;;;;;5086341;28;20511;-72
2021/05/19 08:47:47;;;;;;;11.38;4.72;;;15.10;74.10;;;;;;5058280;28;20101;-73
2021/05/19 08:50:13;;;;;;;14.38;4.85;;;15.10;72.90;;;;;;5074263;28;20139;-73
2021/05/19 08:52:41;;;;;;;14.73;4.63;;;15.20;73.00;;;;;;5078551;28;20164;-73
2021/05/19 08:55:15;;;;;;;11.95;4.72;;;15.20;72.60;;;;;;5067913;28;20480;-73
2021/05/19 08:57:42;;;;;;;11.85;4.70;;;15.20;72.30;;;;;;5083634;28;20392;-73
2021/05/19 09:00:09;;;;;;;14.85;4.40;;;15.30;72.50;;;;;;5092972;28;20054;-73
2021/05/19 09:02:35;;;;;;;12.38;4.63;;;15.50;72.00;;;;;;5092581;28;20020;-73
2021/05/19 09:05:00;;;;;;;15.25;4.63;;;15.60;71.70;;;;;;5074273;28;20140;-73
2021/05/19 09:07:27;;;;;;;15.10;5.20;;;15.70;71.10;;;;;;5066587;28;20082;-73
2021/05/19 09:09:52;;;;;;;11.02;4.30;;;15.70;70.70;;;;;;5080371;28;20412;-73
2021/05/19 09:12:18;;;;;;;8.02;3.97;;;15.80;70.40;;;;;;5065104;28;20081;-73
2021/05/19 09:15:05;;;;;;;15.95;4.50;;;15.90;70.30;;;;;;5064113;28;20028;-75
2021/05/19 09:17:32;;;;;;;12.45;4.07;;;16.00;70.40;;;;;;5078144;28;20032;-74
2021/05/19 09:20:05;;;;;;;12.05;4.05;;;16.10;70.60;;;;;;5082607;28;20119;-75
2021/05/19 09:22:33;;;;;;;9.23;3.22;;;16.20;70.10;;;;;;5082199;28;20095;-74
2021/05/19 09:25:01;;;;;;;13.18;3.97;;;16.40;68.10;;;;;;5070365;28;20108;-78
2021/05/19 09:27:43;;;;;;;17.90;3.78;;;16.50;67.70;;;;;;5082926;28;20392;-77
2021/05/19 09:30:10;;;;;;;12.02;3.53;;;16.60;66.70;;;;;;5071387;28;20120;-77
2021/05/19 09:32:39;;;;;;;8.82;2.83;;;16.40;66.60;;;;;;5092501;28;20476;-77
2021/05/19 09:35:07;;;;;;;9.13;3.10;;;16.20;66.70;;;;;;5074612;28;20031;-77
2021/05/19 09:37:34;;;;;;;11.05;2.88;;;16.10;67.60;;;;;;5075021;28;20071;-77
2021/05/19 09:40:11;;;;;;;9.05;2.58;;;16.00;68.20;;;;;;5074930;28;20028;-77
2021/05/19 09:42:36;;;;;;;7.22;2.28;;;16.00;68.60;;;;;;5096982;28;20028;-77
2021/05/19 09:45:15;;;;;;;11.55;2.47;;;16.00;68.40;;;;;;5096497;28;20024;-77
2021/05/19 09:47:42;;;;;;;11.18;2.58;;;16.10;68.60;;;;;;5093493;28;20012;-77
2021/05/19 09:50:14;;;;;;;9.05;2.47;;;16.10;68.10;;;;;;5091938;28;20032;-77
2021/05/19 09:52:59;;;;;;;10.65;2.47;;;16.30;68.20;;;;;;5079422;28;20052;-77
2021/05/19 09:55:25;;;;;;;9.15;2.28;;;16.50;67.40;;;;;;5096513;28;20033;-79
2021/05/19 09:57:51;;;;;;;11.77;2.00;;;16.80;66.60;;;;;;5077426;28;20024;-78
2021/05/19 10:00:22;;;;;;;6.88;1.77;;;16.80;66.10;;;;;;5094885;28;20487;-78
2021/05/19 10:02:48;;;;;;;10.13;1.80;;;16.80;65.20;;;;;;5105839;28;20024;-78
2021/05/19 10:05:21;;;;;;;10.07;2.50;;;17.20;65.40;;;;;;5094784;28;20044;-78
2021/05/19 10:07:47;;;;;;;8.85;1.88;;;17.50;63.00;;;;;;5097024;28;20081;-78
2021/05/19 10:10:13;;;;;;;6.00;1.83;;;17.80;63.20;;;;;;5094834;28;20062;-78
2021/05/19 10:12:40;;;;;;;9.35;2.47;;;18.00;62.60;;;;;;5094291;28;20084;-78
2021/05/19 10:15:13;;;;;;;6.07;2.65;;;18.30;62.30;;;;;;5095221;28;20024;-78
2021/05/19 10:17:47;;;;;;;8.50;2.40;;;18.70;61.00;;;;;;5095242;28;20502;-78
2021/05/19 10:20:17;;;;;;;7.47;2.25;;;19.00;60.20;;;;;;5091878;28;20028;-78
2021/05/19 10:22:48;;;;;;;8.45;2.10;;;19.20;58.90;;;;;;5077623;28;20024;-79
2021/05/19 10:25:44;;;;;;;8.60;2.35;;;19.40;57.50;;;;;;5095864;28;20028;-78
2021/05/19 10:28:17;;;;;;;6.22;2.08;;;19.40;57.80;;;;;;5079731;28;20024;-79
2021/05/19 10:30:48;;;;;;;5.97;2.42;;;19.20;56.70;;;;;;5096363;28;20016;-79
2021/05/19 10:33:29;;;;;;;12.25;2.72;;;19.00;57.80;;;;;;5116127;28;20051;-79
2021/05/19 10:35:57;;;;;;;7.75;2.20;;;18.70;58.90;;;;;;5090016;28;20020;-79
2021/05/19 10:38:34;;;;;;;7.57;2.53;;;18.50;59.90;;;;;;5095609;28;20032;-79
2021/05/19 10:41:02;;;;;;;9.02;1.83;;;18.30;61.60;;;;;;5095391;28;20028;-79
2021/05/19 10:43:50;;;;;;;10.40;1.73;;;18.00;61.20;;;;;;5095530;28;20031;-79
2021/05/19 10:46:44;;;;;;;8.43;1.45;;;17.70;62.10;;;;;;5075177;28;20021;-79
2021/05/19 10:49:10;;;;;;;5.70;1.33;;;17.40;62.90;;;;;;5075384;28;20057;-79
2021/05/19 10:51:43;;;;;;;4.43;1.00;;;17.10;62.00;;;;;;5047239;28;20610;-79
2021/05/19 11:00:11;;;;;;;4.53;1.10;;;16.60;63.30;;;;;;5082110;28;20050;-79
2021/05/19 11:03:01;;;;;;;8.15;1.50;;;16.60;64.50;;;;;;5091102;28;20048;-79
2021/05/19 11:05:35;;;;;;;9.55;1.83;;;16.60;65.30;;;;;;5094398;28;20058;-78
2021/05/19 11:08:13;;;;;;;9.85;1.80;;;16.70;65.70;;;;;;5091420;28;20028;-78
2021/05/19 11:10:48;;;;;;;9.13;1.77;;;17.00;65.70;;;;;;5065944;28;20096;-78
2021/05/19 11:13:18;;;;;;;10.05;1.90;;;17.30;66.00;;;;;;5062281;28;20075;-78
2021/05/19 11:21:20;;;;;;;6.32;1.20;;;18.40;60.70;;;;;;5074629;28;20070;-78
2021/05/19 11:24:08;;;;;;;5.47;1.60;;;18.30;59.40;;;;;;5080556;28;20024;-78
2021/05/19 11:26:45;;;;;;;7.22;1.85;;;18.00;60.10;;;;;;5094016;28;20042;-79
2021/05/19 11:29:13;;;;;;;9.48;1.83;;;17.70;62.60;;;;;;5061182;28;20400;-79
2021/05/19 11:31:44;;;;;;;;;;;17.40;64.40;;;;;;5093496;28;20058;-80
2021/05/19 11:34:20;;;;;;;14.65;2.35;;;17.00;66.90;;;;;;5079614;28;19962;-80
2021/05/19 11:36:49;;;;;;;8.50;2.22;;;16.50;69.80;;;;;;5081908;28;20475;-80
2021/05/19 11:39:21;;;;;;;9.43;1.90;;;16.20;71.10;;;;;;5094685;28;20519;-80
2021/05/19 11:41:48;;;;;;;9.15;2.00;;;16.00;72.50;;;;;;5094233;28;20020;-80
2021/05/19 11:44:34;;;;;;;6.50;1.83;;;16.10;73.50;;;;;;5076335;28;20480;-80
2021/05/19 11:47:00;;;;;;;4.85;1.67;;;16.20;75.70;;;;;;5088345;28;20454;-80
2021/05/19 11:49:26;;;;;;;6.10;1.77;;;16.50;76.20;;;;;;5094195;28;20099;-80
2021/05/19 11:51:53;;;;;;;7.90;2.15;;;16.80;74.40;;;;;;5093868;28;20024;-81
2021/05/19 11:54:21;;;;;;;9.23;1.90;;;17.30;73.50;;;;;;5086509;28;20034;-80
2021/05/19 11:56:54;;;;;;;5.90;1.77;;;17.60;73.30;;;;;;5093911;28;20035;-80
2021/05/19 11:59:29;;;;;;;9.27;2.30;;;17.90;71.70;;;;;;5094178;28;20383;-80
2021/05/19 12:02:02;;;;;;;5.88;1.73;;;18.20;69.90;;;;;;5094345;28;20091;-80
2021/05/19 12:04:30;;;;;;;6.65;2.30;;;18.40;68.00;;;;;;5075403;28;20073;-80
2021/05/19 12:06:59;;;;;;;12.25;2.70;;;18.50;67.60;;;;;;5075993;28;20431;-79
2021/05/19 12:09:35;;;;;;;4.85;2.10;;;18.10;68.50;;;;;;5066931;28;20078;-80
2021/05/19 12:12:10;;;;;;;5.15;1.63;;;17.70;68.60;;;;;;5091776;28;20480;-80
2021/05/19 12:14:50;;;;;;;4.93;1.50;;;17.30;68.80;;;;;;5094196;28;20024;-80
2021/05/19 12:17:15;;;;;;;3.60;1.30;;;17.20;69.00;;;;;;5075908;28;20044;-80
2021/05/19 12:19:41;;;;;;;4.13;1.45;;;17.40;69.00;;;;;;5093820;28;20080;-79
2021/05/19 12:22:14;;;;;;;2.88;1.45;;;17.40;68.80;;;;;;5093839;28;20025;-78
2021/05/19 12:24:40;;;;;;;3.47;1.35;;;17.50;68.20;;;;;;5092503;28;20032;-79
2021/05/19 12:27:07;;;;;;;6.03;1.20;;;17.60;67.20;;;;;;5109764;28;20484;-80
2021/05/19 12:29:51;;;;;;;3.70;1.20;;;17.60;67.00;;;;;;5075618;28;20043;-79
2021/05/19 12:32:25;;;;;;;5.00;1.20;;;17.80;66.50;;;;;;5092942;28;20039;-79
2021/05/19 12:35:17;;;;;;;3.30;1.80;;;17.80;67.00;;;;;;5089071;28;20024;-80
2021/05/19 12:37:54;;;;;;;5.55;1.80;;;17.90;66.80;;;;;;5088881;28;20125;-80
2021/05/19 12:40:23;;;;;;;7.00;1.95;;;18.10;66.50;;;;;;5055424;28;20123;-79
2021/05/19 12:42:54;;;;;;;;;;;18.20;66.00;;;;;;5073923;28;20116;-79
2021/05/19 12:45:25;;;;;;;4.18;1.88;;;18.30;65.20;;;;;;5055566;28;19905;-79
2021/05/19 12:48:11;;;;;;;4.85;1.92;;;18.20;64.70;;;;;;5073406;28;20599;-78
2021/05/19 12:50:58;;;;;;;3.63;1.63;;;18.30;64.00;;;;;;5093343;28;20020;-80
2021/05/19 12:53:48;;;;;;;5.18;2.03;;;18.20;63.60;;;;;;5078015;28;20134;-77
2021/05/19 12:56:16;;;;;;;3.70;1.77;;;18.10;63.40;;;;;;5087475;28;20489;-79
2021/05/19 12:59:05;;;;;;;4.47;2.42;;;17.90;64.20;;;;;;5055966;28;20044;-80
2021/05/19 13:01:50;;;;;;;4.10;2.20;;;17.80;64.10;;;;;;5085563;28;20100;-80
2021/05/19 13:04:20;;;;;;;4.53;2.30;;;17.60;63.30;;;;;;5038865;28;20410;-79
2021/05/19 13:06:52;;;;;;;4.88;2.40;;;17.30;64.90;;;;;;5072962;28;20048;-79